createdAt,value
2023-03-06T00:03:52.287Z,52.58
2023-03-06T00:09:13.039Z,52.52
2023-03-06T00:14:33.755Z,52.55
2023-03-06T00:19:54.563Z,52.94
2023-03-06T00:25:17.755Z,52.88
2023-03-06T00:30:38.262Z,52.98
2023-03-06T00:37:14.695Z,53.14
2023-03-06T00:42:35.097Z,53.27
2023-03-06T00:47:56.299Z,54.02
2023-03-06T00:53:18.219Z,54.24
2023-03-06T00:58:39.204Z,54.45
2023-03-06T01:03:59.461Z,54.91
2023-03-06T01:09:20.507Z,55.40
2023-03-06T01:14:41.024Z,55.51
2023-03-06T01:20:04.384Z,55.62
2023-03-06T01:25:25.352Z,56.34
2023-03-06T01:30:46.029Z,56.91
2023-03-06T01:36:08.758Z,57.37
2023-03-06T01:41:29.469Z,57.76
2023-03-06T01:46:50.392Z,58.03
2023-03-06T01:52:18.248Z,58.73
2023-03-06T01:57:44.086Z,59.42
2023-03-06T02:03:15.598Z,59.65
2023-03-06T02:08:36.554Z,59.45
2023-03-06T02:13:57.232Z,59.59
2023-03-06T02:19:52.445Z,59.83
2023-03-06T02:25:31.310Z,59.38
2023-03-06T02:30:54.305Z,59.20
2023-03-06T02:36:16.574Z,59.15
2023-03-06T02:41:41.196Z,58.82
2023-03-06T02:47:02.169Z,58.93
2023-03-06T02:52:22.710Z,59.02
2023-03-06T02:57:43.368Z,59.29
2023-03-06T03:03:04.891Z,59.36
2023-03-06T03:08:26.239Z,59.44
2023-03-06T03:13:51.120Z,59.40
2023-03-06T03:19:16.464Z,59.61
2023-03-06T03:24:37.146Z,60.15
2023-03-06T03:29:58.883Z,61.03
2023-03-06T03:35:21.042Z,61.50
2023-03-06T03:40:41.404Z,61.78
2023-03-06T03:46:02.598Z,61.90
2023-03-06T03:51:23.224Z,62.11
2023-03-06T03:56:47.554Z,62.18
2023-03-06T04:02:21.682Z,62.29
2023-03-06T04:07:50.686Z,62.75
2023-03-06T04:13:12.365Z,62.87
2023-03-06T04:18:36.653Z,62.61
2023-03-06T04:23:59.306Z,62.57
2023-03-06T04:29:19.851Z,61.97
2023-03-06T04:34:40.497Z,62.30
2023-03-06T04:40:01.258Z,62.45
2023-03-06T04:45:22.159Z,62.18
2023-03-06T04:50:42.937Z,62.34
2023-03-06T04:56:03.924Z,62.42
2023-03-06T05:01:24.671Z,62.81
2023-03-06T05:06:45.248Z,62.28
2023-03-06T05:12:06.190Z,62.45
2023-03-06T05:17:26.690Z,63.02
2023-03-06T05:22:47.283Z,62.50
2023-03-06T05:28:08.851Z,62.78
2023-03-06T05:33:32.424Z,63.08
2023-03-06T05:38:52.995Z,62.57
2023-03-06T05:44:13.692Z,62.02
2023-03-06T05:49:36.115Z,62.05
2023-03-06T05:54:56.866Z,61.79
2023-03-06T06:00:18.676Z,61.82
2023-03-06T06:05:39.808Z,62.15
2023-03-06T06:11:00.654Z,62.12
2023-03-06T06:16:21.248Z,61.96
2023-03-06T06:21:41.642Z,61.94
2023-03-06T06:27:03.959Z,62.16
2023-03-06T06:32:24.636Z,61.88
2023-03-06T06:37:44.939Z,61.72
2023-03-06T06:43:05.753Z,62.19
2023-03-06T06:48:26.583Z,62.50
2023-03-06T06:53:47.447Z,62.29
2023-03-06T06:59:16.657Z,63.02
2023-03-06T07:04:44.305Z,63.09
2023-03-06T07:10:15.231Z,62.91
2023-03-06T07:15:35.938Z,62.49
2023-03-06T07:20:57.237Z,61.61
2023-03-06T07:26:18.591Z,60.97
2023-03-06T07:31:39.456Z,61.19
2023-03-06T07:37:00.130Z,61.35
2023-03-06T07:42:20.905Z,60.48
2023-03-06T07:47:53.921Z,60.31
2023-03-06T07:53:14.996Z,60.85
2023-03-06T07:59:01.545Z,61.12
2023-03-06T08:04:22.025Z,61.18
2023-03-06T08:09:42.431Z,60.74
2023-03-06T08:15:11.492Z,60.15
2023-03-06T08:20:32.429Z,59.88
2023-03-06T08:26:07.504Z,59.47
2023-03-06T08:31:40.613Z,59.51
2023-03-06T08:37:01.180Z,59.46
2023-03-06T08:42:21.844Z,59.73
2023-03-06T08:47:42.262Z,59.49
2023-03-06T08:53:02.658Z,59.46
2023-03-06T08:58:23.241Z,59.56
2023-03-06T09:03:44.620Z,59.51
2023-03-06T09:09:05.958Z,58.88
2023-03-06T09:14:26.349Z,58.35
2023-03-06T09:19:47.048Z,57.63
2023-03-06T09:25:08.217Z,57.83
2023-03-06T09:30:28.907Z,57.62
2023-03-06T09:35:54.929Z,56.62
2023-03-06T09:41:42.578Z,56.53
2023-03-06T09:47:25.161Z,56.31
2023-03-06T09:53:08.273Z,56.93
2023-03-06T09:58:30.931Z,56.89
2023-03-06T10:04:04.142Z,56.69
2023-03-06T10:09:29.989Z,56.36
2023-03-06T10:15:24.025Z,55.94
2023-03-06T10:20:55.597Z,55.80
2023-03-06T10:26:22.935Z,54.75
2023-03-06T10:31:45.334Z,54.18
2023-03-06T10:37:18.633Z,53.48
2023-03-06T10:42:39.389Z,51.89
2023-03-06T10:48:11.978Z,51.04
2023-03-06T10:53:32.861Z,42.37
2023-03-06T10:59:09.089Z,29.03
2023-03-06T11:04:33.013Z,27.70
2023-03-06T11:10:21.984Z,25.28
2023-03-06T11:15:57.054Z,25.69
2023-03-06T11:21:25.465Z,25.97
2023-03-06T11:26:56.616Z,29.37
2023-03-06T11:32:24.630Z,29.80
2023-03-06T11:37:58.330Z,25.72
2023-03-06T11:43:35.296Z,26.00
2023-03-06T11:49:12.071Z,27.51
2023-03-06T11:54:33.655Z,25.92
2023-03-06T12:00:08.323Z,24.70
2023-03-06T12:05:52.501Z,21.65
2023-03-06T12:11:20.312Z,20.88
2023-03-06T12:17:06.823Z,18.62
2023-03-06T12:22:57.987Z,17.12
2023-03-06T12:28:46.857Z,16.38
2023-03-06T12:34:22.474Z,14.55
2023-03-06T12:39:48.721Z,13.49
2023-03-06T12:45:25.060Z,14.78
2023-03-06T12:50:46.215Z,16.37
2023-03-06T12:56:07.296Z,16.72
2023-03-06T13:01:34.073Z,22.75
2023-03-06T13:07:16.545Z,25.89
2023-03-06T13:13:01.140Z,19.62
2023-03-06T13:18:21.881Z,18.47
2023-03-06T13:23:52.146Z,20.00
2023-03-06T13:29:37.971Z,21.58
2023-03-06T13:34:58.828Z,22.12
2023-03-06T13:40:31.825Z,25.82
2023-03-06T13:45:52.796Z,27.52
2023-03-06T13:51:23.288Z,25.37
2023-03-06T13:57:13.966Z,22.18
2023-03-06T14:03:21.358Z,20.96
2023-03-06T14:08:42.542Z,23.51
2023-03-06T14:14:03.681Z,30.13
2023-03-06T14:19:24.721Z,34.69
2023-03-06T14:24:54.473Z,36.18
2023-03-06T14:30:18.648Z,38.19
2023-03-06T14:35:39.254Z,39.49
2023-03-06T14:40:59.934Z,38.83
2023-03-06T14:46:22.416Z,38.86
2023-03-06T14:51:46.615Z,38.73
2023-03-06T14:57:14.522Z,38.50
2023-03-06T15:02:36.141Z,38.88
2023-03-06T15:08:04.099Z,40.39
2023-03-06T15:13:28.137Z,40.47
2023-03-06T15:19:02.438Z,42.30
2023-03-06T15:24:35.850Z,43.05
2023-03-06T15:30:20.741Z,43.48
2023-03-06T15:36:02.058Z,44.34
2023-03-06T15:41:33.186Z,45.10
2023-03-06T15:47:06.601Z,45.56
2023-03-06T15:52:28.966Z,46.25
2023-03-06T15:58:02.078Z,47.40
2023-03-06T16:03:22.808Z,47.27
2023-03-06T16:08:43.833Z,47.94
2023-03-06T16:14:04.664Z,47.98
2023-03-06T16:19:27.618Z,48.59
2023-03-06T16:24:48.350Z,48.94
2023-03-06T16:30:18.030Z,50.17
2023-03-06T16:35:38.809Z,49.95
2023-03-06T16:40:59.024Z,51.02
2023-03-06T16:46:22.280Z,51.18
2023-03-06T16:51:42.669Z,51.42
2023-03-06T16:57:03.182Z,52.32
2023-03-06T17:02:23.988Z,52.30
2023-03-06T17:07:44.381Z,51.60
2023-03-06T17:13:07.274Z,52.56
2023-03-06T17:18:28.933Z,52.39
2023-03-06T17:23:50.796Z,52.95
2023-03-06T17:29:12.027Z,53.36
2023-03-06T17:34:32.315Z,53.30
2023-03-06T17:39:52.964Z,53.73
2023-03-06T17:45:13.935Z,53.73
2023-03-06T17:50:34.354Z,54.72
2023-03-06T17:55:55.698Z,55.32
2023-03-06T18:01:19.658Z,56.09
2023-03-06T18:06:40.011Z,56.96
2023-03-06T18:12:00.682Z,57.09
2023-03-06T18:17:21.515Z,57.22
2023-03-06T18:22:42.210Z,57.14
2023-03-06T18:28:02.914Z,57.12
2023-03-06T18:33:23.790Z,56.19
2023-03-06T18:38:45.629Z,56.22
2023-03-06T18:44:06.258Z,56.41
2023-03-06T18:49:27.294Z,57.35
2023-03-06T18:54:49.887Z,58.37
2023-03-06T19:00:10.998Z,59.07
2023-03-06T19:05:31.538Z,59.75
2023-03-06T19:10:52.262Z,60.06
2023-03-06T19:16:22.596Z,61.22
2023-03-06T19:21:43.148Z,62.22
2023-03-06T19:27:03.917Z,63.31
2023-03-06T19:32:25.008Z,63.47
2023-03-06T19:37:45.382Z,62.53
2023-03-06T19:43:05.848Z,63.27
2023-03-06T19:48:26.394Z,64.71
2023-03-06T19:53:46.852Z,65.56
2023-03-06T19:59:07.499Z,66.53
2023-03-06T20:04:32.655Z,67.70
2023-03-06T20:09:56.134Z,68.95
2023-03-06T20:15:18.940Z,69.95
2023-03-06T20:20:39.960Z,71.40
2023-03-06T20:26:06.029Z,73.33
2023-03-06T20:31:34.455Z,73.49
2023-03-06T20:36:57.776Z,73.72
2023-03-06T20:42:18.486Z,74.73
2023-03-06T20:47:39.205Z,74.56
2023-03-06T20:52:59.770Z,75.57
2023-03-06T20:58:26.586Z,75.82
2023-03-06T21:03:47.510Z,76.74
2023-03-06T21:09:26.886Z,77.24
2023-03-06T21:15:27.851Z,78.06
2023-03-06T21:21:28.946Z,77.91
2023-03-06T21:26:54.304Z,78.67
2023-03-06T21:32:15.072Z,79.51
2023-03-06T21:37:36.202Z,79.55
2023-03-06T21:43:07.557Z,79.98
2023-03-06T21:48:42.573Z,79.62
2023-03-06T21:54:05.448Z,80.72
2023-03-06T21:59:32.313Z,80.55
2023-03-06T22:04:59.239Z,80.95
2023-03-06T22:10:20.124Z,81.61
2023-03-06T22:16:00.646Z,81.89
2023-03-06T22:21:24.841Z,82.27
2023-03-06T22:26:51.437Z,82.63
2023-03-06T22:32:20.705Z,83.00
2023-03-06T22:37:50.537Z,83.15
2023-03-06T22:43:17.530Z,83.36
2023-03-06T22:48:45.247Z,83.32
2023-03-06T22:54:11.238Z,83.56
2023-03-06T22:59:38.077Z,83.74
2023-03-06T23:05:05.891Z,83.30
2023-03-06T23:10:29.429Z,83.50
2023-03-06T23:16:09.643Z,83.12
2023-03-06T23:21:49.643Z,82.72
2023-03-06T23:27:29.422Z,82.79
2023-03-06T23:32:49.819Z,83.46
2023-03-06T23:38:11.427Z,83.32
2023-03-06T23:43:32.352Z,82.60
2023-03-06T23:48:53.121Z,81.87
2023-03-06T23:54:13.998Z,81.25
2023-03-06T23:59:34.876Z,79.80
